Terminal Aerodrome Forecast
Issued by NWS

Current Version | Previous Version | Graphics & Text | Print | Product List | Glossary On
Versions: 1 2 3 4 5 6 7 8 9 10 11 12 13
016
FTUS41 KPBZ 200520
TAFMGW
TAF
KMGW 200520Z 2006/2106 26010KT P6SM OVC035
      TEMPO 2006/2008 BKN025
     FM201300 23007KT P6SM SCT035
     FM201700 21010KT P6SM SKC=

USA.gov is the U.S. government's official web portal to all federal, state and local government web resources and services.